Kinetic — CFG7437 — position and weather

sailwx.info

Track history (hours):
 
Tides and Currents Weather Stations Pressure Air Temp Water Temp Dewpoint Dewpoint Depression Visibility Wind Speed Wind Dir Waves Ship Positions

Kinetic

Last reported at 2018-Jan-01 22:35 UTC. Time now 2018-Jan-22 10:31 UTC.
Position N 49°18' W 123°08'.
Warning: this ship's position is 20 days out of date.

Length 15 m; draft 3 m.

Type: Pleasure craft. MMSI: 316004479.

Date/timePositionNaut miles runAvg speedWind from/ knotsBaromVisibWave heightAir tempDewpointWater temp
2018-Jan-01 22:35N 49°18' W 123°08'0 2.2
2018-Jan-01 22:28N 49°18' W 123°07'4 8.1
2018-Jan-01 22:00N 49°18' W 123°01'4 7.4
2018-Jan-01 21:27N 49°19' W 122°56'4 8.2
2018-Jan-01 21:00N 49°23' W 122°53'1 0.0
2017-Dec-30 19:24N 49°23' W 122°53'3 7.8
2017-Dec-30 18:59N 49°20' W 122°55'4 7.5
2017-Dec-30 18:30N 49°18' W 122°59'4 8.4
2017-Dec-30 18:00N 49°18' W 123°05'  
Track history (hours):
 
Tides and Currents Weather Stations Pressure Air Temp Water Temp Dewpoint Dewpoint Depression Visibility Wind Speed Wind Dir Waves Ship Positions

Kinetic

Last reported at 2018-Jan-01 22:35 UTC. Time now 2018-Jan-22 10:31 UTC.
Position N 49°18' W 123°08'.
Warning: this ship's position is 20 days out of date.

Length 15 m; draft 3 m.

Type: Pleasure craft. MMSI: 316004479.

Date/timePositionNaut miles runAvg speedWind from/ knotsBaromVisibWave heightAir tempDewpointWater temp
2018-Jan-01 22:35N 49°18' W 123°08'0 2.2
2018-Jan-01 22:28N 49°18' W 123°07'4 8.1
2018-Jan-01 22:00N 49°18' W 123°01'4 7.4
2018-Jan-01 21:27N 49°19' W 122°56'4 8.2
2018-Jan-01 21:00N 49°23' W 122°53'1 0.0
2017-Dec-30 19:24N 49°23' W 122°53'3 7.8
2017-Dec-30 18:59N 49°20' W 122°55'4 7.5
2017-Dec-30 18:30N 49°18' W 122°59'4 8.4
2017-Dec-30 18:00N 49°18' W 123°05'  

Dump ship's entire track history